createdAt,value
2024-01-20T00:00:39.442Z,28.40
2024-01-20T00:03:07.378Z,35.92
2024-01-20T00:05:36.915Z,32.78
2024-01-20T00:10:33.199Z,29.70
2024-01-20T00:13:03.462Z,31.25
2024-01-20T00:15:31.461Z,35.17
2024-01-20T00:17:59.411Z,25.45
2024-01-20T00:20:27.971Z,32.38
2024-01-20T00:22:57.802Z,31.35
2024-01-20T00:25:25.942Z,33.60
2024-01-20T00:27:54.945Z,37.00
2024-01-20T00:30:23.367Z,32.45
2024-01-20T00:32:51.784Z,30.20
2024-01-20T00:35:20.269Z,32.75
2024-01-20T00:37:48.324Z,36.95
2024-01-20T00:40:17.654Z,32.08
2024-01-20T00:42:45.745Z,34.90
2024-01-20T00:45:13.845Z,35.38
2024-01-20T00:47:41.792Z,31.15
2024-01-20T00:50:10.406Z,36.47
2024-01-20T00:52:38.566Z,34.97
2024-01-20T00:55:07.781Z,37.42
2024-01-20T00:57:37.331Z,40.15
2024-01-20T01:00:09.745Z,33.93
2024-01-20T01:02:38.089Z,36.45
2024-01-20T01:05:07.532Z,26.65
2024-01-20T01:07:36.350Z,29.95
2024-01-20T01:10:05.675Z,27.90
2024-01-20T01:12:33.639Z,37.58
2024-01-20T01:15:03.362Z,31.08
2024-01-20T01:19:59.367Z,30.58
2024-01-20T01:22:27.323Z,22.77
2024-01-20T01:24:55.458Z,29.52
2024-01-20T01:27:23.445Z,26.02
2024-01-20T01:29:51.458Z,30.13
2024-01-20T01:32:21.062Z,22.65
2024-01-20T01:34:49.041Z,24.97
2024-01-20T01:37:17.048Z,23.98
2024-01-20T01:39:46.161Z,17.23
2024-01-20T01:42:14.024Z,24.83
2024-01-20T01:44:41.916Z,31.48
2024-01-20T01:47:10.047Z,29.25
2024-01-20T01:52:08.161Z,21.45
2024-01-20T01:54:36.548Z,24.83
2024-01-20T01:57:07.091Z,22.25
2024-01-20T01:59:37.372Z,16.67
2024-01-20T02:02:05.433Z,20.95
2024-01-20T02:04:33.321Z,19.77
2024-01-20T02:07:02.893Z,25.42
2024-01-20T02:09:31.952Z,19.70
2024-01-20T02:12:01.218Z,23.33
2024-01-20T02:14:29.393Z,23.52
2024-01-20T02:16:57.400Z,25.17
2024-01-20T02:19:25.278Z,25.38
2024-01-20T02:21:53.316Z,21.50
2024-01-20T02:24:22.771Z,24.55
2024-01-20T02:26:51.952Z,22.63
2024-01-20T02:29:19.968Z,23.20
2024-01-20T02:31:48.069Z,20.45
2024-01-20T02:34:16.039Z,25.92
2024-01-20T02:36:44.160Z,17.10
2024-01-20T02:39:12.299Z,23.13
2024-01-20T02:41:41.581Z,20.23
2024-01-20T02:44:09.573Z,22.75
2024-01-20T02:46:37.589Z,22.60
2024-01-20T02:49:05.629Z,15.38
2024-01-20T02:51:33.832Z,21.23
2024-01-20T02:54:01.967Z,20.60
2024-01-20T02:56:29.898Z,16.00
2024-01-20T02:58:59.237Z,15.25
2024-01-20T03:01:27.305Z,17.08
2024-01-20T03:03:55.306Z,18.08
2024-01-20T03:06:23.340Z,17.48
2024-01-20T03:08:51.421Z,18.38
2024-01-20T03:11:19.365Z,17.50
2024-01-20T03:13:49.295Z,17.25
2024-01-20T03:18:46.389Z,14.38
2024-01-20T03:21:14.424Z,13.73
2024-01-20T03:23:44.021Z,15.13
2024-01-20T03:26:12.101Z,15.15
2024-01-20T03:28:42.133Z,14.80
2024-01-20T03:31:10.168Z,19.98
2024-01-20T03:33:39.570Z,10.73
2024-01-20T03:36:08.145Z,19.05
2024-01-20T03:38:36.228Z,12.00
2024-01-20T03:41:04.220Z,13.98
2024-01-20T03:43:32.294Z,13.95
2024-01-20T03:46:00.339Z,13.23
2024-01-20T03:48:28.674Z,14.35
2024-01-20T03:50:58.141Z,9.73
2024-01-20T03:53:26.065Z,13.68
2024-01-20T03:55:54.009Z,11.95
2024-01-20T03:58:22.085Z,11.02
2024-01-20T04:00:50.229Z,10.95
2024-01-20T04:03:18.405Z,9.70
2024-01-20T04:05:48.388Z,12.52
2024-01-20T04:10:45.621Z,15.55
2024-01-20T04:13:13.623Z,9.32
2024-01-20T04:15:41.556Z,10.45
2024-01-20T04:18:09.682Z,10.05
2024-01-20T04:20:37.918Z,10.02
2024-01-20T04:23:05.810Z,11.82
2024-01-20T04:25:35.095Z,11.00
2024-01-20T04:28:07.894Z,11.43
2024-01-20T04:30:36.002Z,9.27
2024-01-20T04:33:04.119Z,13.23
2024-01-20T04:35:32.430Z,11.20
2024-01-20T04:38:00.334Z,9.57
2024-01-20T04:40:28.234Z,10.07
2024-01-20T04:42:57.763Z,10.23
2024-01-20T04:45:25.721Z,10.05
2024-01-20T04:47:53.867Z,11.32
2024-01-20T04:50:26.370Z,12.00
2024-01-20T04:52:54.328Z,10.05
2024-01-20T04:55:22.297Z,9.73
2024-01-20T04:57:50.516Z,9.82
2024-01-20T05:00:20.472Z,8.10
2024-01-20T05:05:16.378Z,8.07
2024-01-20T05:07:44.358Z,9.48
2024-01-20T05:10:12.428Z,12.18
2024-01-20T05:12:40.385Z,9.73
2024-01-20T05:15:12.943Z,8.60
2024-01-20T05:17:42.685Z,9.48
2024-01-20T05:20:14.339Z,8.50
2024-01-20T05:22:42.241Z,12.68
2024-01-20T05:25:10.543Z,11.40
2024-01-20T05:27:38.774Z,11.10
2024-01-20T05:30:07.967Z,9.70
2024-01-20T05:32:36.149Z,6.75
2024-01-20T05:35:05.958Z,11.63
2024-01-20T05:37:33.842Z,11.27
2024-01-20T05:40:01.797Z,8.35
2024-01-20T05:42:29.787Z,8.57
2024-01-20T05:44:57.822Z,9.20
2024-01-20T05:47:25.840Z,9.30
2024-01-20T05:49:53.980Z,11.90
2024-01-20T05:52:23.368Z,10.38
2024-01-20T05:54:51.406Z,10.35
2024-01-20T05:57:19.411Z,15.40
2024-01-20T05:59:47.346Z,10.23
2024-01-20T06:02:15.299Z,9.73
2024-01-20T06:04:43.262Z,11.07
2024-01-20T06:07:11.194Z,9.23
2024-01-20T06:09:40.929Z,8.45
2024-01-20T06:12:09.737Z,14.52
2024-01-20T06:14:37.912Z,10.43
2024-01-20T06:17:06.267Z,10.98
2024-01-20T06:19:34.217Z,10.27
2024-01-20T06:22:02.137Z,15.05
2024-01-20T06:24:32.496Z,15.05
2024-01-20T06:27:01.927Z,10.23
2024-01-20T06:29:29.892Z,11.15
2024-01-20T06:31:58.128Z,8.25
2024-01-20T06:34:28.051Z,11.63
2024-01-20T06:39:25.985Z,8.52
2024-01-20T06:41:53.980Z,10.80
2024-01-20T06:44:24.874Z,10.30
2024-01-20T06:46:52.939Z,16.10
2024-01-20T06:49:20.906Z,11.82
2024-01-20T06:51:49.360Z,9.55
2024-01-20T06:54:17.430Z,8.88
2024-01-20T06:56:45.414Z,11.18
2024-01-20T06:59:13.451Z,7.88
2024-01-20T07:01:42.762Z,7.40
2024-01-20T07:04:10.968Z,7.45
2024-01-20T07:06:38.959Z,8.18
2024-01-20T07:09:07.650Z,8.55
2024-01-20T07:11:35.688Z,10.18
2024-01-20T07:14:03.663Z,9.20
2024-01-20T07:16:31.672Z,7.70
2024-01-20T07:19:01.400Z,8.43
2024-01-20T07:21:29.515Z,7.97
2024-01-20T07:23:57.610Z,10.55
2024-01-20T07:26:25.576Z,9.32
2024-01-20T07:28:53.535Z,10.23
2024-01-20T07:31:21.497Z,8.43
2024-01-20T07:33:49.860Z,13.93
2024-01-20T07:36:19.255Z,15.63
2024-01-20T07:38:47.332Z,9.05
2024-01-20T07:41:15.616Z,13.52
2024-01-20T07:43:43.523Z,11.20
2024-01-20T07:46:11.809Z,13.10
2024-01-20T07:48:40.072Z,11.63
2024-01-20T07:51:08.141Z,6.03
2024-01-20T07:53:37.551Z,8.95
2024-01-20T07:56:05.953Z,10.98
2024-01-20T07:58:33.825Z,15.07
2024-01-20T08:01:01.889Z,8.98
2024-01-20T08:03:30.065Z,8.75
2024-01-20T08:05:57.017Z,11.40
2024-01-20T08:08:25.054Z,9.80
2024-01-20T08:10:54.452Z,7.65
2024-01-20T08:13:22.762Z,8.05
2024-01-20T08:15:50.789Z,6.25
2024-01-20T08:18:18.937Z,6.80
2024-01-20T08:20:47.112Z,7.15
2024-01-20T08:23:15.057Z,10.80
2024-01-20T08:25:43.273Z,9.40
2024-01-20T08:28:12.680Z,8.48
2024-01-20T08:30:40.735Z,5.25
2024-01-20T08:33:09.473Z,5.57
2024-01-20T08:35:37.608Z,8.57
2024-01-20T08:38:05.985Z,7.40
2024-01-20T08:40:33.893Z,10.07
2024-01-20T08:43:01.900Z,8.48
2024-01-20T08:45:31.264Z,8.02
2024-01-20T08:47:59.232Z,9.27
2024-01-20T08:50:27.582Z,7.25
2024-01-20T08:52:55.603Z,7.20
2024-01-20T08:55:23.485Z,8.60
2024-01-20T08:57:51.490Z,8.00
2024-01-20T09:00:20.348Z,7.93
2024-01-20T09:02:49.710Z,7.85
2024-01-20T09:05:19.353Z,7.60
2024-01-20T09:07:47.526Z,8.98
2024-01-20T09:10:15.662Z,7.40
2024-01-20T09:12:43.954Z,7.25
2024-01-20T09:15:12.987Z,7.32
2024-01-20T09:17:41.117Z,5.55
2024-01-20T09:20:11.375Z,8.40
2024-01-20T09:22:39.544Z,6.75
2024-01-20T09:25:08.263Z,6.50
2024-01-20T09:27:36.280Z,7.65
2024-01-20T09:30:06.224Z,7.65
2024-01-20T09:32:35.049Z,6.57
2024-01-20T09:35:03.958Z,9.07
2024-01-20T09:37:33.738Z,7.57
2024-01-20T09:40:01.955Z,7.57
2024-01-20T09:42:30.671Z,10.70
2024-01-20T09:44:59.383Z,8.10
2024-01-20T09:47:27.440Z,8.82
2024-01-20T09:49:55.748Z,10.63
2024-01-20T09:52:29.008Z,7.55
2024-01-20T09:55:15.558Z,9.70
2024-01-20T09:57:44.651Z,9.52
2024-01-20T10:00:15.376Z,9.10
2024-01-20T10:02:46.158Z,10.27
2024-01-20T10:05:15.418Z,11.35
2024-01-20T10:07:43.849Z,12.00
2024-01-20T10:10:20.554Z,17.02
2024-01-20T10:12:51.039Z,11.63
2024-01-20T10:15:22.636Z,14.73
2024-01-20T10:17:50.834Z,15.95
2024-01-20T10:20:22.275Z,14.90
2024-01-20T10:22:51.373Z,10.07
2024-01-20T10:25:21.438Z,9.23
2024-01-20T10:30:21.097Z,12.30
2024-01-20T10:33:03.315Z,12.63
2024-01-20T10:35:37.037Z,9.68
2024-01-20T10:38:11.571Z,6.72
2024-01-20T10:40:43.474Z,7.70
2024-01-20T10:43:15.156Z,7.07
2024-01-20T10:45:48.771Z,10.65
2024-01-20T10:48:22.420Z,9.45
2024-01-20T10:50:55.658Z,6.53
2024-01-20T10:53:25.262Z,7.25
2024-01-20T10:55:55.430Z,9.75
2024-01-20T10:58:32.854Z,8.10
2024-01-20T11:01:01.516Z,8.13
2024-01-20T11:03:30.604Z,9.27
2024-01-20T11:05:58.730Z,8.15
2024-01-20T11:08:28.182Z,8.90
2024-01-20T11:10:57.721Z,10.70
2024-01-20T11:13:27.391Z,7.35
2024-01-20T11:15:59.082Z,9.85
2024-01-20T11:18:28.701Z,13.60
2024-01-20T11:21:01.114Z,10.02
2024-01-20T11:23:29.895Z,8.07
2024-01-20T11:26:06.352Z,11.63
2024-01-20T11:28:38.654Z,11.68
2024-01-20T11:31:06.735Z,9.88
2024-01-20T11:33:35.021Z,9.38
2024-01-20T11:36:03.183Z,9.45
2024-01-20T11:38:33.335Z,10.65
2024-01-20T11:43:31.707Z,14.35
2024-01-20T11:45:59.602Z,11.48
2024-01-20T11:48:28.253Z,11.43
2024-01-20T11:50:56.412Z,9.90
2024-01-20T11:53:24.611Z,11.45
2024-01-20T11:55:57.113Z,7.28
2024-01-20T11:58:26.796Z,10.77
2024-01-20T12:00:56.305Z,13.98
2024-01-20T12:03:24.784Z,10.02
2024-01-20T12:05:53.354Z,8.77
2024-01-20T12:08:22.055Z,8.25
2024-01-20T12:10:51.538Z,7.28
2024-01-20T12:13:19.745Z,10.32
2024-01-20T12:15:50.906Z,8.77
2024-01-20T12:18:19.561Z,8.35
2024-01-20T12:20:47.800Z,9.20
2024-01-20T12:23:21.267Z,8.32
2024-01-20T12:25:53.066Z,10.35
2024-01-20T12:28:21.245Z,8.35
2024-01-20T12:30:51.065Z,8.30
2024-01-20T12:33:19.139Z,11.52
2024-01-20T12:35:47.147Z,16.50
2024-01-20T12:38:15.384Z,13.07
2024-01-20T12:40:45.938Z,10.93
2024-01-20T12:43:13.960Z,8.93
2024-01-20T12:45:42.134Z,8.02
2024-01-20T12:48:13.669Z,12.63
2024-01-20T12:50:44.029Z,10.23
2024-01-20T12:53:11.985Z,11.30
2024-01-20T12:55:39.980Z,9.45
2024-01-20T12:58:08.121Z,9.90
2024-01-20T13:00:36.443Z,12.85
2024-01-20T13:03:04.953Z,15.02
2024-01-20T13:05:34.971Z,14.27
2024-01-20T13:08:03.126Z,11.33
2024-01-20T13:10:32.809Z,11.65
2024-01-20T13:13:00.828Z,10.27
2024-01-20T13:15:28.796Z,17.80
2024-01-20T13:17:56.801Z,11.80
2024-01-20T13:20:25.187Z,14.65
2024-01-20T13:22:54.576Z,8.82
2024-01-20T13:25:23.558Z,11.32
2024-01-20T13:27:52.360Z,12.18
2024-01-20T13:30:20.386Z,11.50
2024-01-20T13:32:49.821Z,8.82
2024-01-20T13:35:17.921Z,10.15
2024-01-20T13:37:46.127Z,11.73
2024-01-20T13:40:16.019Z,8.05
2024-01-20T13:42:44.139Z,9.07
2024-01-20T13:45:12.910Z,10.50
2024-01-20T13:47:40.952Z,8.98
2024-01-20T13:50:09.922Z,8.45
2024-01-20T13:52:37.934Z,11.63
2024-01-20T13:55:07.169Z,11.20
2024-01-20T13:57:39.271Z,12.05
2024-01-20T14:00:11.746Z,10.00
2024-01-20T14:02:39.945Z,12.60
2024-01-20T14:05:08.972Z,13.00
2024-01-20T14:07:36.878Z,21.90
2024-01-20T14:10:06.788Z,12.85
2024-01-20T14:12:36.252Z,14.85
2024-01-20T14:15:04.929Z,12.48
2024-01-20T14:17:33.738Z,10.57
2024-01-20T14:20:01.739Z,9.88
2024-01-20T14:22:29.724Z,14.07
2024-01-20T14:24:57.973Z,11.27
2024-01-20T14:27:25.938Z,20.55
2024-01-20T14:29:55.884Z,21.83
2024-01-20T14:32:24.238Z,20.05
2024-01-20T14:34:55.069Z,13.75
2024-01-20T14:37:23.061Z,17.08
2024-01-20T14:39:51.324Z,14.43
2024-01-20T14:42:19.282Z,19.77
2024-01-20T14:44:47.213Z,47.17
2024-01-20T14:47:16.701Z,17.08
2024-01-20T14:49:44.767Z,11.35
2024-01-20T14:52:12.787Z,11.15
2024-01-20T14:54:40.950Z,16.02
2024-01-20T14:57:08.869Z,17.40
2024-01-20T14:59:36.974Z,14.55
2024-01-20T15:02:06.920Z,11.45
2024-01-20T15:04:37.245Z,9.88
2024-01-20T15:07:06.984Z,13.52
2024-01-20T15:09:35.092Z,13.80
2024-01-20T15:12:03.275Z,11.48
2024-01-20T15:14:31.368Z,12.60
2024-01-20T15:16:59.254Z,11.45
2024-01-20T15:19:28.098Z,13.70
2024-01-20T15:21:57.676Z,14.32
2024-01-20T15:24:26.007Z,12.88
2024-01-20T15:26:53.908Z,12.15
2024-01-20T15:29:21.943Z,10.68
2024-01-20T15:31:50.024Z,10.52
2024-01-20T15:34:18.132Z,12.32
2024-01-20T15:36:46.415Z,12.07
2024-01-20T15:39:16.616Z,13.30
2024-01-20T15:41:47.203Z,9.05
2024-01-20T15:44:15.560Z,13.95
2024-01-20T15:46:43.444Z,13.85
2024-01-20T15:49:11.970Z,11.20
2024-01-20T15:51:40.317Z,18.13
2024-01-20T15:54:08.257Z,14.40
2024-01-20T15:56:43.524Z,16.00
2024-01-20T15:59:11.546Z,12.13
2024-01-20T16:01:39.792Z,13.73
2024-01-20T16:04:09.057Z,12.88
2024-01-20T16:06:39.955Z,12.57
2024-01-20T16:09:08.557Z,13.18
2024-01-20T16:11:38.659Z,20.63
2024-01-20T16:16:35.922Z,33.83
2024-01-20T16:19:04.037Z,19.42
2024-01-20T16:21:33.082Z,16.27
2024-01-20T16:24:01.126Z,15.80
2024-01-20T16:26:29.068Z,26.25
2024-01-20T16:28:57.146Z,34.20
2024-01-20T16:31:26.724Z,33.78
2024-01-20T16:33:54.949Z,61.92
2024-01-20T16:36:23.017Z,48.65
2024-01-20T16:38:51.073Z,40.05
2024-01-20T16:41:20.597Z,23.35
2024-01-20T16:43:48.555Z,28.20
2024-01-20T16:46:16.587Z,15.90
2024-01-20T16:48:46.272Z,14.55
2024-01-20T16:51:22.076Z,18.60
2024-01-20T16:53:52.928Z,20.52
2024-01-20T16:56:22.976Z,19.30
2024-01-20T17:01:19.010Z,13.63
2024-01-20T17:03:48.456Z,12.35
2024-01-20T17:06:20.804Z,18.13
2024-01-20T17:08:48.991Z,24.10
2024-01-20T17:11:18.987Z,28.00
2024-01-20T17:13:48.887Z,27.90
2024-01-20T17:16:17.175Z,19.98
2024-01-20T17:18:45.282Z,22.25
2024-01-20T17:21:19.982Z,12.35
2024-01-20T17:23:52.827Z,12.70
2024-01-20T17:26:27.520Z,20.35
2024-01-20T17:28:55.879Z,19.40
2024-01-20T17:31:24.051Z,12.23
2024-01-20T17:33:53.390Z,16.95
2024-01-20T17:36:23.167Z,24.13
2024-01-20T17:38:51.172Z,18.50
2024-01-20T17:41:19.382Z,18.65
2024-01-20T17:43:47.394Z,20.10
2024-01-20T17:46:15.632Z,17.83
2024-01-20T17:48:43.778Z,18.95
2024-01-20T17:51:12.078Z,19.08
2024-01-20T17:53:41.339Z,18.27
2024-01-20T17:56:09.349Z,17.17
2024-01-20T17:58:37.440Z,20.40
2024-01-20T18:01:06.357Z,18.88
2024-01-20T18:03:35.503Z,22.08
2024-01-20T18:06:03.706Z,17.00
2024-01-20T18:08:31.848Z,15.80
2024-01-20T18:11:01.176Z,18.88
2024-01-20T18:13:29.118Z,21.52
2024-01-20T18:15:59.116Z,25.90
2024-01-20T18:20:55.234Z,25.02
2024-01-20T18:23:23.842Z,26.10
2024-01-20T18:25:51.893Z,26.42
2024-01-20T18:28:21.184Z,24.63
2024-01-20T18:30:52.726Z,30.27
2024-01-20T18:33:21.372Z,30.27
2024-01-20T18:35:49.648Z,30.30
2024-01-20T18:38:17.607Z,27.80
2024-01-20T18:40:45.707Z,31.38
2024-01-20T18:43:16.664Z,27.73
2024-01-20T18:45:46.151Z,28.52
2024-01-20T18:48:14.168Z,26.77
2024-01-20T18:50:42.228Z,27.77
2024-01-20T18:53:10.319Z,23.23
2024-01-20T18:55:38.348Z,25.90
2024-01-20T18:58:06.448Z,23.55
2024-01-20T19:00:34.669Z,23.13
2024-01-20T19:03:08.755Z,25.67
2024-01-20T19:05:37.048Z,26.38
2024-01-20T19:08:05.572Z,26.77
2024-01-20T19:10:34.750Z,17.67
2024-01-20T19:13:03.675Z,21.95
2024-01-20T19:15:31.702Z,14.48
2024-01-20T19:18:01.752Z,19.15
2024-01-20T19:23:03.067Z,18.33
2024-01-20T19:25:33.076Z,15.20
2024-01-20T19:30:29.798Z,10.70
2024-01-20T19:32:57.972Z,13.90
2024-01-20T19:35:29.167Z,16.58
2024-01-20T19:38:02.271Z,18.42
2024-01-20T19:40:30.442Z,15.85
2024-01-20T19:42:58.966Z,13.15
2024-01-20T19:45:27.067Z,15.32
2024-01-20T19:47:57.692Z,11.80
2024-01-20T19:50:26.023Z,14.52
2024-01-20T19:52:53.902Z,16.08
2024-01-20T19:55:24.906Z,12.63
2024-01-20T19:57:53.030Z,12.13
2024-01-20T20:00:23.205Z,11.77
2024-01-20T20:02:52.069Z,11.13
2024-01-20T20:05:20.187Z,11.60
2024-01-20T20:07:48.223Z,15.32
2024-01-20T20:10:18.188Z,13.57
2024-01-20T20:12:47.826Z,10.15
2024-01-20T20:15:16.140Z,13.00
2024-01-20T20:17:45.456Z,17.77
2024-01-20T20:22:43.628Z,20.02
2024-01-20T20:25:11.958Z,16.13
2024-01-20T20:27:39.999Z,17.15
2024-01-20T20:30:10.463Z,19.83
2024-01-20T20:32:46.796Z,17.33
2024-01-20T20:35:15.656Z,18.27
2024-01-20T20:37:46.737Z,18.20
2024-01-20T20:40:16.910Z,16.58
2024-01-20T20:45:17.172Z,19.63
2024-01-20T20:47:45.317Z,19.80
2024-01-20T20:50:19.247Z,21.75
2024-01-20T20:52:49.549Z,21.67
2024-01-20T20:55:19.241Z,22.77
2024-01-20T20:57:47.338Z,20.75
2024-01-20T21:00:18.096Z,22.25
2024-01-20T21:02:46.499Z,21.17
2024-01-20T21:05:17.321Z,21.58
2024-01-20T21:07:46.140Z,23.83
2024-01-20T21:10:16.139Z,24.45
2024-01-20T21:12:44.598Z,28.27
2024-01-20T21:15:18.735Z,23.98
2024-01-20T21:17:46.803Z,23.83
2024-01-20T21:20:15.076Z,27.58
2024-01-20T21:22:43.362Z,20.27
2024-01-20T21:25:11.502Z,22.97
2024-01-20T21:27:39.456Z,23.07
2024-01-20T21:30:08.834Z,27.00
2024-01-20T21:32:38.232Z,25.48
2024-01-20T21:35:06.700Z,25.27
2024-01-20T21:37:35.097Z,22.23
2024-01-20T21:40:03.107Z,24.70
2024-01-20T21:42:31.057Z,21.50
2024-01-20T21:45:01.231Z,19.45
2024-01-20T21:49:58.464Z,24.63
2024-01-20T21:52:26.778Z,20.95
2024-01-20T21:54:55.045Z,20.23
2024-01-20T21:57:22.975Z,21.60
2024-01-20T21:59:50.965Z,17.07
2024-01-20T22:02:18.953Z,25.73
2024-01-20T22:04:46.842Z,38.20
2024-01-20T22:07:16.483Z,59.07
2024-01-20T22:09:44.697Z,60.45
2024-01-20T22:12:12.639Z,44.40
2024-01-20T22:14:40.728Z,25.88
2024-01-20T22:17:08.684Z,20.80
2024-01-20T22:19:37.176Z,18.37
2024-01-20T22:22:05.658Z,21.17
2024-01-20T22:24:35.072Z,18.65
2024-01-20T22:27:03.206Z,22.08
2024-01-20T22:29:32.174Z,19.52
2024-01-20T22:32:01.443Z,17.60
2024-01-20T22:34:32.813Z,20.80
2024-01-20T22:37:01.333Z,19.13
2024-01-20T22:39:29.535Z,18.53
2024-01-20T22:41:59.303Z,17.53
2024-01-20T22:44:27.388Z,23.25
2024-01-20T22:46:55.268Z,16.90
2024-01-20T22:49:23.923Z,20.53
2024-01-20T22:51:52.055Z,18.17
2024-01-20T22:54:23.598Z,24.97
2024-01-20T22:56:52.346Z,20.93
2024-01-20T22:59:21.646Z,23.60
2024-01-20T23:01:49.644Z,22.95
2024-01-20T23:04:17.779Z,18.10
2024-01-20T23:06:46.747Z,17.20
2024-01-20T23:09:18.143Z,16.83
2024-01-20T23:11:46.380Z,20.00
2024-01-20T23:14:14.370Z,17.30
2024-01-20T23:16:43.818Z,19.17
2024-01-20T23:19:12.368Z,15.70
2024-01-20T23:21:40.407Z,14.03
2024-01-20T23:24:08.427Z,18.13
2024-01-20T23:26:37.444Z,16.23
2024-01-20T23:29:05.437Z,14.93
2024-01-20T23:31:33.326Z,13.90
2024-01-20T23:34:02.838Z,15.57
2024-01-20T23:36:31.030Z,15.13
2024-01-20T23:38:59.057Z,17.43
2024-01-20T23:41:27.222Z,19.93
2024-01-20T23:43:55.253Z,23.47
2024-01-20T23:46:23.225Z,25.60
2024-01-20T23:48:51.169Z,16.80
2024-01-20T23:51:20.698Z,15.03
2024-01-20T23:53:51.162Z,15.82
2024-01-20T23:56:19.127Z,14.30
2024-01-20T23:58:47.143Z,13.87
